Time;durP1;ratioP1;P1;durP2;ratioP2;P2;SDS_P1;SDS_P2;PMS_P1;PMS_P2;Temp;Humidity;BMP_temperature;BMP_pressure;BME280_temperature;BME280_humidity;BME280_pressure;Samples;Min_cycle;Max_cycle;Signal;HPM_P1;HPM_P2
2023/09/19 00:00:44;;;;;;;3.10;1.43;;;15.80;99.90;;;;;;5043852;28;20417;-74
2023/09/19 00:03:11;;;;;;;5.10;2.20;;;15.70;99.90;;;;;;5039314;28;20441;-74
2023/09/19 00:05:38;;;;;;;1.80;1.47;;;15.70;99.90;;;;;;5031456;28;20453;-74
2023/09/19 00:08:04;;;;;;;2.57;2.10;;;15.70;99.90;;;;;;5031910;28;20784;-75
2023/09/19 00:10:36;;;;;;;1.50;1.40;;;15.60;99.90;;;;;;5031812;28;20408;-75
2023/09/19 00:13:06;;;;;;;3.30;1.83;;;15.60;99.90;;;;;;5031881;28;20213;-74
2023/09/19 00:15:50;;;;;;;5.07;1.70;;;15.60;99.90;;;;;;5031472;28;20433;-74
2023/09/19 00:18:21;;;;;;;5.10;1.80;;;15.50;99.90;;;;;;5030496;28;20955;-74
2023/09/19 00:20:47;;;;;;;4.37;2.20;;;15.50;99.90;;;;;;5030576;28;20414;-74
2023/09/19 00:23:13;;;;;;;5.67;2.07;;;15.50;99.90;;;;;;5031695;28;20492;-74
2023/09/19 00:25:40;;;;;;;6.77;2.40;;;15.50;99.90;;;;;;5031283;28;20477;-74
2023/09/19 00:28:07;;;;;;;5.83;2.30;;;15.40;99.90;;;;;;5031656;28;20407;-74
2023/09/19 00:30:33;;;;;;;5.77;1.50;;;15.40;99.90;;;;;;5030710;28;20905;-75
2023/09/19 00:32:58;;;;;;;2.70;1.30;;;15.40;99.90;;;;;;5031633;28;20391;-74
2023/09/19 00:35:24;;;;;;;6.50;1.70;;;15.40;99.90;;;;;;5033744;28;20191;-74
2023/09/19 00:37:50;;;;;;;6.23;2.70;;;15.40;99.90;;;;;;5034208;28;20172;-74
2023/09/19 00:40:16;;;;;;;5.47;1.77;;;15.40;99.90;;;;;;5035470;28;20180;-74
2023/09/19 00:42:43;;;;;;;2.50;1.90;;;15.50;99.90;;;;;;5035403;28;20826;-73
2023/09/19 00:45:13;;;;;;;1.90;1.70;;;15.50;99.90;;;;;;5034920;28;20962;-75
2023/09/19 00:47:49;;;;;;;8.23;2.00;;;15.50;99.90;;;;;;5034071;28;20508;-75
2023/09/19 00:50:22;;;;;;;2.70;1.40;;;15.60;99.90;;;;;;5035288;28;20436;-74
2023/09/19 00:52:49;;;;;;;2.97;1.70;;;15.60;99.90;;;;;;5035225;28;20405;-75
2023/09/19 00:55:16;;;;;;;2.70;2.10;;;15.60;99.90;;;;;;5036896;28;20966;-75
2023/09/19 00:57:41;;;;;;;4.10;1.80;;;15.70;99.90;;;;;;5049482;28;20409;-75
2023/09/19 01:00:15;;;;;;;2.60;1.93;;;15.80;99.90;;;;;;5036332;28;20421;-75
2023/09/19 01:02:44;;;;;;;1.80;1.50;;;15.80;99.90;;;;;;5035084;28;20398;-75
2023/09/19 01:05:12;;;;;;;2.50;2.10;;;15.90;99.90;;;;;;5034636;28;20496;-74
2023/09/19 01:07:41;;;;;;;6.57;2.10;;;15.90;99.90;;;;;;5034944;28;20406;-75
2023/09/19 01:10:10;;;;;;;8.90;1.70;;;16.10;99.90;;;;;;5035031;28;20397;-75
2023/09/19 01:13:17;;;;;;;5.90;2.03;;;16.10;99.90;;;;;;5034878;28;20426;-75
2023/09/19 01:16:11;;;;;;;3.93;1.80;;;16.20;99.90;;;;;;5034440;28;20425;-74
2023/09/19 01:18:49;;;;;;;5.23;1.70;;;16.20;99.90;;;;;;5033680;28;20453;-74
2023/09/19 01:21:30;;;;;;;3.73;1.90;;;16.20;99.90;;;;;;5034836;28;20444;-74
2023/09/19 01:24:17;;;;;;;5.63;1.70;;;16.20;99.90;;;;;;5034591;28;20526;-74
2023/09/19 01:27:25;;;;;;;5.63;1.80;;;16.20;99.90;;;;;;5034595;28;20477;-74
2023/09/19 01:29:51;;;;;;;2.60;1.60;;;16.20;99.90;;;;;;5034727;28;20394;-74
2023/09/19 01:32:22;;;;;;;11.53;2.20;;;16.10;99.90;;;;;;5034453;28;20413;-74
2023/09/19 01:34:49;;;;;;;4.23;2.17;;;16.10;99.90;;;;;;5034169;28;20452;-74
2023/09/19 01:37:19;;;;;;;6.50;1.80;;;16.20;99.90;;;;;;5034427;28;20452;-75
2023/09/19 01:39:48;;;;;;;3.20;1.50;;;16.10;99.90;;;;;;5034512;28;20925;-74
2023/09/19 01:42:51;;;;;;;3.53;1.30;;;16.10;99.90;;;;;;5034314;28;20410;-74
2023/09/19 01:45:22;;;;;;;14.53;11.73;;;16.20;99.90;;;;;;5033825;28;20461;-74
2023/09/19 01:47:56;;;;;;;4.60;2.20;;;16.20;99.90;;;;;;5033257;28;20494;-74
2023/09/19 01:50:36;;;;;;;3.60;1.87;;;16.20;99.90;;;;;;5034233;28;20754;-74
2023/09/19 01:53:08;;;;;;;3.10;2.03;;;16.30;99.90;;;;;;5034204;28;20434;-74
2023/09/19 01:55:42;;;;;;;6.80;1.67;;;16.20;99.90;;;;;;5035110;28;20457;-74
2023/09/19 01:58:15;;;;;;;2.13;1.80;;;16.30;99.90;;;;;;5048348;28;20830;-74
2023/09/19 02:00:44;;;;;;;4.20;1.87;;;16.30;99.90;;;;;;5033824;28;20404;-75
2023/09/19 02:03:12;;;;;;;3.30;2.13;;;16.30;99.90;;;;;;5032508;28;20406;-75
2023/09/19 02:05:37;;;;;;;5.90;2.30;;;16.20;99.90;;;;;;5032041;28;20453;-74
2023/09/19 02:08:03;;;;;;;3.63;1.77;;;16.30;99.90;;;;;;5033260;28;20403;-74
2023/09/19 02:10:29;;;;;;;6.80;1.83;;;16.20;99.90;;;;;;5033856;28;20239;-75
2023/09/19 02:12:54;;;;;;;5.07;2.17;;;16.20;99.90;;;;;;5033790;28;20517;-75
2023/09/19 02:15:20;;;;;;;6.67;2.10;;;16.10;99.90;;;;;;5033068;28;20393;-74
2023/09/19 02:17:45;;;;;;;7.90;1.70;;;16.10;99.90;;;;;;5032419;28;20183;-75
2023/09/19 02:20:14;;;;;;;9.63;1.90;;;16.00;99.90;;;;;;5033242;28;20168;-75
2023/09/19 02:22:44;;;;;;;10.03;1.87;;;16.00;99.90;;;;;;5033545;28;20166;-74
2023/09/19 02:25:09;;;;;;;2.50;1.90;;;15.90;99.90;;;;;;5032975;28;20529;-75
2023/09/19 02:27:35;;;;;;;2.00;1.60;;;15.90;99.90;;;;;;5033395;28;20498;-74
2023/09/19 02:30:04;;;;;;;5.10;2.00;;;15.80;99.90;;;;;;5033419;28;20166;-74
2023/09/19 02:32:31;;;;;;;6.00;2.00;;;15.80;99.90;;;;;;5033441;28;20410;-75
2023/09/19 02:34:58;;;;;;;4.30;1.60;;;15.80;99.90;;;;;;5032983;28;20426;-75
2023/09/19 02:37:23;;;;;;;11.40;8.30;;;15.80;99.90;;;;;;5033255;28;20927;-75
2023/09/19 02:39:49;;;;;;;5.07;3.87;;;15.80;99.90;;;;;;5033307;28;20406;-75
2023/09/19 02:42:14;;;;;;;4.90;2.60;;;15.80;99.90;;;;;;5033176;28;20581;-75
2023/09/19 02:44:40;;;;;;;5.90;1.80;;;15.80;99.90;;;;;;5032749;28;20214;-75
2023/09/19 02:47:05;;;;;;;4.93;1.87;;;15.80;99.90;;;;;;5033182;28;20191;-74
2023/09/19 02:49:31;;;;;;;4.00;1.70;;;15.70;99.90;;;;;;5033030;28;20160;-75
2023/09/19 02:51:59;;;;;;;7.80;1.97;;;15.80;99.90;;;;;;5032873;28;20160;-75
2023/09/19 02:54:24;;;;;;;4.10;2.07;;;15.80;99.90;;;;;;5031310;28;20449;-75
2023/09/19 02:56:50;;;;;;;5.33;2.03;;;15.70;99.90;;;;;;5032928;28;20421;-75
2023/09/19 02:59:16;;;;;;;9.33;4.03;;;15.70;99.90;;;;;;5030734;28;20572;-76
2023/09/19 03:01:43;;;;;;;9.43;1.80;;;15.60;99.90;;;;;;5032720;28;20167;-74
2023/09/19 03:04:11;;;;;;;7.50;1.67;;;15.60;99.90;;;;;;5032283;28;20191;-75
2023/09/19 03:06:38;;;;;;;6.83;2.00;;;15.60;99.90;;;;;;5032480;28;20822;-75
2023/09/19 03:09:06;;;;;;;10.33;2.57;;;15.50;99.90;;;;;;5032695;28;20423;-75
2023/09/19 03:11:31;;;;;;;10.03;3.97;;;15.50;99.90;;;;;;5032608;28;20410;-75
2023/09/19 03:13:57;;;;;;;8.23;3.03;;;15.40;99.90;;;;;;5032358;28;20425;-75
2023/09/19 03:16:24;;;;;;;5.90;2.10;;;15.30;99.90;;;;;;5031219;28;20638;-75
2023/09/19 03:18:50;;;;;;;5.10;2.40;;;15.30;99.90;;;;;;5032009;28;20418;-75
2023/09/19 03:21:17;;;;;;;3.57;2.10;;;15.20;99.90;;;;;;5032560;28;20472;-74
2023/09/19 03:23:45;;;;;;;3.13;2.10;;;15.20;99.90;;;;;;5030923;28;20210;-74
2023/09/19 03:26:16;;;;;;;6.90;2.13;;;15.20;99.90;;;;;;5030872;28;20461;-75
2023/09/19 03:28:42;;;;;;;7.57;2.00;;;15.10;99.90;;;;;;5032374;28;20441;-75
2023/09/19 03:31:08;;;;;;;5.43;2.60;;;15.10;99.90;;;;;;5032271;28;20472;-74
2023/09/19 03:33:34;;;;;;;4.20;2.13;;;15.10;99.90;;;;;;5032199;28;20414;-75
2023/09/19 03:36:00;;;;;;;2.67;1.63;;;15.10;99.90;;;;;;5032110;28;20761;-74
2023/09/19 03:38:27;;;;;;;7.53;2.53;;;15.10;99.90;;;;;;5032342;28;20213;-75
2023/09/19 03:40:53;;;;;;;5.00;1.70;;;15.10;99.90;;;;;;5032445;28;21090;-75
2023/09/19 03:43:19;;;;;;;4.10;1.53;;;15.10;99.90;;;;;;5032133;28;20445;-75
2023/09/19 03:45:46;;;;;;;5.43;2.53;;;15.00;99.90;;;;;;5031575;28;20187;-75
2023/09/19 03:48:12;;;;;;;9.93;2.60;;;15.00;99.90;;;;;;5032003;28;20160;-74
2023/09/19 03:50:37;;;;;;;4.77;2.10;;;15.00;99.90;;;;;;5031682;28;20399;-75
2023/09/19 03:53:03;;;;;;;4.03;1.80;;;14.90;99.90;;;;;;5032025;28;20182;-74
2023/09/19 03:55:32;;;;;;;5.67;1.90;;;15.00;99.90;;;;;;5031574;28;20211;-75
2023/09/19 03:57:58;;;;;;;3.70;1.60;;;14.90;99.90;;;;;;5032008;28;20410;-74
2023/09/19 04:00:26;;;;;;;4.63;1.57;;;14.90;99.90;;;;;;5030557;28;20414;-74
2023/09/19 04:02:52;;;;;;;11.30;2.80;;;14.80;99.90;;;;;;5030650;28;20167;-74
2023/09/19 04:05:18;;;;;;;3.20;1.63;;;14.80;99.90;;;;;;5031573;28;20824;-74
2023/09/19 04:07:44;;;;;;;7.13;2.47;;;14.80;99.90;;;;;;5031843;28;20405;-75
2023/09/19 04:10:11;;;;;;;7.67;2.80;;;14.80;99.90;;;;;;5035796;28;20402;-74
2023/09/19 04:12:37;;;;;;;7.77;2.40;;;14.80;99.90;;;;;;5038450;28;20202;-74
2023/09/19 04:15:03;;;;;;;4.00;2.00;;;14.70;99.90;;;;;;5038046;28;21301;-75
2023/09/19 04:17:28;;;;;;;10.50;2.33;;;14.70;99.90;;;;;;5038390;28;20405;-74
2023/09/19 04:19:54;;;;;;;8.53;3.43;;;14.70;99.90;;;;;;5038268;28;20779;-75
2023/09/19 04:22:19;;;;;;;5.50;2.00;;;14.70;99.90;;;;;;5037086;28;20175;-75
2023/09/19 04:24:45;;;;;;;9.93;2.90;;;14.70;99.90;;;;;;5037932;28;20190;-76
2023/09/19 04:27:14;;;;;;;10.17;2.37;;;14.70;99.90;;;;;;5038298;28;20182;-74
2023/09/19 04:29:41;;;;;;;5.10;2.13;;;14.70;99.90;;;;;;5038288;28;20171;-75
2023/09/19 04:32:07;;;;;;;4.43;1.93;;;14.60;99.90;;;;;;5037070;28;20973;-74
2023/09/19 04:34:34;;;;;;;4.80;1.40;;;14.60;99.90;;;;;;5036733;28;20540;-75
2023/09/19 04:37:00;;;;;;;3.33;1.77;;;14.60;99.90;;;;;;5038312;28;20410;-76
2023/09/19 04:39:26;;;;;;;5.03;2.37;;;14.60;99.90;;;;;;5038258;28;20456;-75
2023/09/19 04:41:52;;;;;;;2.67;1.87;;;14.60;99.90;;;;;;5038147;28;20897;-75
2023/09/19 04:44:18;;;;;;;8.43;2.10;;;14.70;99.90;;;;;;5037890;28;20437;-75
2023/09/19 04:46:45;;;;;;;6.57;1.83;;;14.70;99.90;;;;;;5038123;28;20457;-75
2023/09/19 04:49:11;;;;;;;7.10;2.07;;;14.70;99.90;;;;;;5037029;28;20179;-74
2023/09/19 04:51:36;;;;;;;5.47;2.50;;;14.70;99.90;;;;;;5036902;28;20410;-75
2023/09/19 04:54:02;;;;;;;7.30;1.93;;;14.70;99.90;;;;;;5037862;28;20215;-74
2023/09/19 04:56:31;;;;;;;8.03;1.73;;;14.60;99.90;;;;;;5036633;28;20253;-75
2023/09/19 04:58:58;;;;;;;13.53;2.43;;;14.70;99.90;;;;;;5038074;28;20417;-74
2023/09/19 05:01:24;;;;;;;7.37;2.40;;;14.70;99.90;;;;;;5038104;28;20422;-77
2023/09/19 05:03:52;;;;;;;10.73;2.60;;;14.70;99.90;;;;;;5037557;28;20429;-74
2023/09/19 05:06:20;;;;;;;6.27;1.93;;;14.70;99.90;;;;;;5037595;28;20214;-77
2023/09/19 05:08:47;;;;;;;7.60;2.27;;;14.70;99.90;;;;;;5037919;28;20406;-75
2023/09/19 05:11:12;;;;;;;6.27;2.20;;;14.60;99.90;;;;;;5036533;28;20405;-75
2023/09/19 05:13:38;;;;;;;4.67;1.50;;;14.60;99.90;;;;;;5037736;28;20914;-76
2023/09/19 05:16:03;;;;;;;4.03;1.40;;;14.60;99.90;;;;;;5037777;28;20276;-73
2023/09/19 05:18:29;;;;;;;10.93;1.93;;;14.50;99.90;;;;;;5036636;28;20194;-74
2023/09/19 05:20:54;;;;;;;9.30;2.07;;;14.50;99.90;;;;;;5035866;28;20207;-74
2023/09/19 05:23:20;;;;;;;5.60;1.73;;;14.50;99.90;;;;;;5034655;28;20281;-76
2023/09/19 05:25:46;;;;;;;6.57;2.60;;;14.50;99.90;;;;;;5034303;28;20187;-77
2023/09/19 05:28:14;;;;;;;4.03;1.63;;;14.50;99.90;;;;;;5034697;28;20405;-75
2023/09/19 05:30:41;;;;;;;6.00;1.97;;;14.50;99.90;;;;;;5034601;28;20693;-77
2023/09/19 05:33:07;;;;;;;7.93;2.20;;;14.60;99.90;;;;;;5034466;28;20433;-76
2023/09/19 05:35:33;;;;;;;6.23;1.90;;;14.60;99.90;;;;;;5033083;28;20484;-74
2023/09/19 05:37:58;;;;;;;5.30;2.40;;;14.60;99.90;;;;;;5034457;28;20406;-75
2023/09/19 05:40:25;;;;;;;7.90;2.10;;;14.70;99.90;;;;;;5033152;28;20203;-74
2023/09/19 05:42:51;;;;;;;2.20;1.40;;;14.70;99.90;;;;;;5034405;28;20168;-77
2023/09/19 05:45:23;;;;;;;3.33;1.80;;;14.70;99.90;;;;;;5032782;28;20509;-77
2023/09/19 05:47:50;;;;;;;3.30;1.80;;;14.70;99.90;;;;;;5034397;28;20175;-75
2023/09/19 05:50:16;;;;;;;2.50;1.43;;;14.80;99.90;;;;;;5034718;28;20406;-77
2023/09/19 05:52:45;;;;;;;6.20;1.87;;;14.80;99.90;;;;;;5035245;28;20421;-76
2023/09/19 05:55:10;;;;;;;3.40;2.00;;;14.80;99.90;;;;;;5033766;28;20210;-76
2023/09/19 05:57:42;;;;;;;4.83;2.03;;;14.80;99.90;;;;;;5036550;28;20889;-76
2023/09/19 06:00:10;;;;;;;4.50;2.27;;;14.90;99.90;;;;;;5034299;28;20614;-76
2023/09/19 06:02:37;;;;;;;7.07;2.00;;;14.90;99.90;;;;;;5035183;28;20414;-77
2023/09/19 06:05:09;;;;;;;8.43;3.00;;;14.90;99.90;;;;;;5035098;28;20465;-77
2023/09/19 06:07:37;;;;;;;7.57;2.07;;;14.90;99.90;;;;;;5035751;28;20403;-76
2023/09/19 06:10:05;;;;;;;12.10;2.30;;;15.00;99.90;;;;;;5034887;28;20438;-76
2023/09/19 06:12:33;;;;;;;6.70;1.83;;;15.00;99.90;;;;;;5035820;28;20489;-76
2023/09/19 06:14:59;;;;;;;9.47;1.80;;;15.10;99.90;;;;;;5034769;28;20941;-75
2023/09/19 06:17:26;;;;;;;5.77;1.87;;;15.10;99.90;;;;;;5034710;28;20464;-76
2023/09/19 06:19:52;;;;;;;6.90;1.90;;;15.20;99.90;;;;;;5034548;28;20167;-75
2023/09/19 06:22:18;;;;;;;12.23;2.07;;;15.30;99.90;;;;;;5035714;28;20414;-76
2023/09/19 06:24:44;;;;;;;11.87;1.77;;;15.30;99.90;;;;;;5034497;28;20192;-76
2023/09/19 06:27:10;;;;;;;9.67;2.03;;;15.30;99.90;;;;;;5034398;28;20984;-76
2023/09/19 06:29:37;;;;;;;8.87;2.13;;;15.50;99.90;;;;;;5035058;28;20168;-75
2023/09/19 06:32:07;;;;;;;7.23;1.77;;;15.50;99.90;;;;;;5033417;28;20186;-76
2023/09/19 06:34:33;;;;;;;7.63;2.10;;;15.60;99.90;;;;;;5033057;28;20806;-76
2023/09/19 06:36:58;;;;;;;5.50;4.33;;;15.70;99.90;;;;;;5034450;28;20432;-76
2023/09/19 06:39:25;;;;;;;4.50;1.67;;;15.80;99.90;;;;;;5034707;28;20437;-75
2023/09/19 06:41:53;;;;;;;5.90;1.90;;;15.90;99.90;;;;;;5035374;28;20181;-76
2023/09/19 06:44:20;;;;;;;6.73;2.23;;;15.90;99.90;;;;;;5034906;28;20921;-76
2023/09/19 06:46:49;;;;;;;10.93;1.83;;;16.00;99.90;;;;;;5034968;28;20508;-75
2023/09/19 06:49:15;;;;;;;8.67;2.20;;;16.10;99.90;;;;;;5034921;28;20909;-76
2023/09/19 06:51:41;;;;;;;15.67;2.20;;;16.20;99.90;;;;;;5034989;28;20425;-73
2023/09/19 06:54:07;;;;;;;7.67;2.40;;;16.30;99.90;;;;;;5032308;28;20204;-73
2023/09/19 06:56:32;;;;;;;6.90;2.10;;;16.50;99.90;;;;;;5032939;28;20413;-72
2023/09/19 06:58:58;;;;;;;5.17;1.53;;;16.60;99.90;;;;;;5032930;28;20213;-71
2023/09/19 07:01:25;;;;;;;2.43;1.70;;;16.70;99.90;;;;;;5032919;28;20168;-72
2023/09/19 07:03:50;;;;;;;1.93;1.33;;;16.80;99.90;;;;;;5032688;28;20183;-72
2023/09/19 07:06:16;;;;;;;9.10;2.07;;;17.00;99.90;;;;;;5032535;28;21036;-72
2023/09/19 07:08:43;;;;;;;4.40;1.77;;;17.10;99.90;;;;;;5032761;28;20529;-71
2023/09/19 07:11:08;;;;;;;5.77;2.03;;;17.20;99.90;;;;;;5032687;28;20233;-73
2023/09/19 07:13:35;;;;;;;7.33;2.23;;;17.30;99.90;;;;;;5032515;28;20449;-73
2023/09/19 07:16:01;;;;;;;4.30;1.90;;;17.50;99.90;;;;;;5032485;28;20539;-73
2023/09/19 07:18:26;;;;;;;7.70;2.00;;;17.60;99.90;;;;;;5032527;28;20403;-73
2023/09/19 07:21:01;;;;;;;4.80;1.80;;;17.70;99.90;;;;;;5032565;28;20642;-72
2023/09/19 07:23:27;;;;;;;2.70;1.73;;;17.80;99.90;;;;;;5031424;28;20653;-72
2023/09/19 07:25:56;;;;;;;5.70;2.10;;;18.00;99.90;;;;;;5032240;28;20539;-73
2023/09/19 07:28:22;;;;;;;11.57;2.40;;;18.10;99.90;;;;;;5032457;28;20448;-72
2023/09/19 07:30:48;;;;;;;5.20;1.60;;;18.20;99.90;;;;;;5032342;28;20429;-73
2023/09/19 07:33:14;;;;;;;1.63;1.53;;;18.30;99.90;;;;;;5032283;28;20426;-71
2023/09/19 07:35:40;;;;;;;4.50;2.33;;;18.40;99.90;;;;;;5032059;28;20179;-72
2023/09/19 07:38:06;;;;;;;2.70;1.83;;;18.50;99.90;;;;;;5032230;28;20773;-71
2023/09/19 07:40:31;;;;;;;5.67;1.73;;;18.70;99.90;;;;;;5031233;28;20543;-72
2023/09/19 07:42:57;;;;;;;2.90;1.30;;;18.70;99.90;;;;;;5032198;28;20164;-72
2023/09/19 07:45:22;;;;;;;4.93;1.80;;;18.80;99.90;;;;;;5030915;28;20219;-73
2023/09/19 07:47:50;;;;;;;5.40;1.37;;;19.00;99.90;;;;;;5032086;28;20222;-73
2023/09/19 07:50:18;;;;;;;5.67;1.90;;;19.10;99.90;;;;;;5031525;28;20163;-73
2023/09/19 07:52:44;;;;;;;4.10;1.70;;;19.30;99.90;;;;;;5031880;28;20405;-72
2023/09/19 07:55:11;;;;;;;1.67;1.43;;;19.50;99.90;;;;;;5031345;28;20446;-72
2023/09/19 07:57:37;;;;;;;2.90;1.70;;;19.90;99.90;;;;;;5031992;28;20409;-72
2023/09/19 08:00:07;;;;;;;5.20;2.10;;;20.20;99.90;;;;;;5031803;28;20402;-72
2023/09/19 08:02:38;;;;;;;7.83;1.50;;;20.60;99.90;;;;;;5030617;28;20406;-72
2023/09/19 08:05:06;;;;;;;4.33;1.80;;;21.20;99.90;;;;;;5031451;28;20428;-72
2023/09/19 08:07:32;;;;;;;7.97;2.10;;;21.60;99.90;;;;;;5032243;28;20402;-72
2023/09/19 08:09:58;;;;;;;4.33;2.10;;;21.90;99.90;;;;;;5032239;28;20533;-72
2023/09/19 08:12:24;;;;;;;7.40;1.80;;;22.10;99.90;;;;;;5031771;28;20865;-72
2023/09/19 08:14:50;;;;;;;4.93;1.67;;;22.20;99.90;;;;;;5030488;28;20527;-72
2023/09/19 08:17:16;;;;;;;6.37;1.80;;;22.50;99.90;;;;;;5031849;28;20160;-72
2023/09/19 08:19:44;;;;;;;2.63;1.50;;;23.00;99.90;;;;;;5030713;28;20414;-72
2023/09/19 08:22:10;;;;;;;5.70;2.20;;;23.80;99.90;;;;;;5031653;28;20163;-73
2023/09/19 08:24:36;;;;;;;5.40;2.03;;;24.30;99.90;;;;;;5031393;28;20838;-72
2023/09/19 08:27:04;;;;;;;8.93;2.10;;;25.00;98.30;;;;;;5031576;28;20441;-72
2023/09/19 08:29:30;;;;;;;4.17;2.03;;;25.90;92.50;;;;;;5031908;28;20505;-73
2023/09/19 08:31:57;;;;;;;4.37;1.90;;;26.70;83.10;;;;;;5030237;28;20406;-73
2023/09/19 08:34:24;;;;;;;4.43;1.63;;;27.40;75.10;;;;;;5031294;28;20976;-72
2023/09/19 08:36:56;;;;;;;4.03;2.13;;;27.70;67.00;;;;;;5031539;28;20479;-73
2023/09/19 08:39:25;;;;;;;4.10;1.60;;;28.00;64.90;;;;;;5031507;28;20398;-70
2023/09/19 08:42:01;;;;;;;4.63;2.40;;;28.20;60.80;;;;;;5031529;28;20402;-73
2023/09/19 08:44:30;;;;;;;5.23;2.23;;;28.30;57.50;;;;;;5031248;28;20448;-70
2023/09/19 08:47:08;;;;;;;4.17;1.93;;;28.20;58.10;;;;;;5030122;28;20458;-70
2023/09/19 08:49:44;;;;;;;3.30;1.67;;;28.40;57.60;;;;;;5031436;28;20889;-70
2023/09/19 08:52:33;;;;;;;2.33;1.77;;;28.80;56.10;;;;;;5031396;28;20405;-70
2023/09/19 08:55:04;;;;;;;2.30;1.47;;;28.80;53.80;;;;;;5029820;28;20504;-73
2023/09/19 08:57:35;;;;;;;4.93;2.20;;;28.90;53.30;;;;;;5032649;28;20402;-73
2023/09/19 09:00:05;;;;;;;4.27;1.80;;;29.30;53.00;;;;;;5035289;28;20402;-73
2023/09/19 09:02:34;;;;;;;3.63;1.77;;;29.60;51.10;;;;;;5035014;28;20398;-73
2023/09/19 09:05:00;;;;;;;4.80;1.80;;;30.00;49.40;;;;;;5034622;28;20477;-70
2023/09/19 09:07:27;;;;;;;4.37;1.80;;;30.70;48.80;;;;;;5033717;28;20916;-71
2023/09/19 09:09:53;;;;;;;4.53;1.70;;;31.30;48.00;;;;;;5035025;28;20493;-71
2023/09/19 09:12:19;;;;;;;2.03;1.30;;;31.90;45.90;;;;;;5034879;28;20409;-74
2023/09/19 09:14:50;;;;;;;3.33;2.00;;;32.30;43.80;;;;;;5034568;28;20461;-71
2023/09/19 09:17:20;;;;;;;2.63;1.70;;;32.00;42.00;;;;;;5035213;28;20172;-73
2023/09/19 09:19:47;;;;;;;3.20;1.80;;;31.90;41.90;;;;;;5034823;28;20771;-71
2023/09/19 09:22:13;;;;;;;5.23;1.80;;;32.30;42.50;;;;;;5034732;28;20453;-71
2023/09/19 09:24:53;;;;;;;2.90;1.63;;;32.90;42.50;;;;;;5034490;28;20948;-71
2023/09/19 09:27:19;;;;;;;3.50;1.50;;;34.00;41.10;;;;;;5034664;28;20182;-72
2023/09/19 09:29:51;;;;;;;9.60;1.90;;;35.00;39.20;;;;;;5034505;28;20402;-72
2023/09/19 09:32:18;;;;;;;3.43;1.80;;;36.20;37.00;;;;;;5034482;28;20211;-72
2023/09/19 09:34:44;;;;;;;4.57;2.03;;;36.60;35.70;;;;;;5033183;28;20960;-71
2023/09/19 09:37:20;;;;;;;2.20;1.63;;;36.60;34.40;;;;;;5034496;28;20488;-71
2023/09/19 09:39:58;;;;;;;6.77;2.30;;;36.00;32.80;;;;;;5034389;28;20410;-71
2023/09/19 09:42:32;;;;;;;2.70;1.67;;;35.90;33.90;;;;;;5034309;28;20405;-71
2023/09/19 09:47:59;;;;;;;3.77;1.90;;;35.60;33.70;;;;;;5034403;28;20426;-72
2023/09/19 09:53:32;;;;;;;3.63;2.00;;;35.80;33.50;;;;;;5033996;28;20445;-71
2023/09/19 09:56:01;;;;;;;5.00;1.83;;;35.40;33.00;;;;;;5032775;28;20856;-72
2023/09/19 09:58:29;;;;;;;2.43;2.20;;;34.80;33.00;;;;;;5034034;28;20440;-72
2023/09/19 10:01:14;;;;;;;3.97;2.00;;;34.40;34.00;;;;;;5034008;28;20490;-72
2023/09/19 10:03:43;;;;;;;7.10;1.87;;;34.80;34.20;;;;;;5034048;28;20402;-72
2023/09/19 10:06:25;;;;;;;4.43;1.80;;;35.60;34.10;;;;;;5033666;28;20445;-71
2023/09/19 10:09:11;;;;;;;2.90;1.80;;;36.00;33.70;;;;;;5033392;28;20403;-72
2023/09/19 10:11:45;;;;;;;4.43;2.10;;;37.10;34.50;;;;;;5033791;28;20403;-71
2023/09/19 10:14:12;;;;;;;7.47;1.80;;;37.50;31.70;;;;;;5033552;28;21002;-72
2023/09/19 10:16:49;;;;;;;4.10;2.10;;;38.10;31.50;;;;;;5033697;28;20425;-72
2023/09/19 10:19:30;;;;;;;3.40;1.60;;;38.70;31.30;;;;;;5033803;28;20812;-72
2023/09/19 10:21:56;;;;;;;2.80;1.90;;;38.30;29.80;;;;;;5033740;28;20433;-72
2023/09/19 10:24:24;;;;;;;3.77;2.20;;;38.10;29.70;;;;;;5033257;28;20777;-72
2023/09/19 10:26:51;;;;;;;2.10;1.70;;;38.30;29.70;;;;;;5032181;28;20465;-72
2023/09/19 10:29:18;;;;;;;2.90;1.70;;;37.90;29.40;;;;;;5032291;28;20776;-72
2023/09/19 10:31:47;;;;;;;5.17;2.20;;;37.60;29.80;;;;;;5033379;28;20403;-72
2023/09/19 10:34:15;;;;;;;2.30;1.80;;;38.30;30.70;;;;;;5032981;28;20434;-72
2023/09/19 10:36:45;;;;;;;5.43;2.17;;;39.40;31.40;;;;;;5032282;28;20999;-73
2023/09/19 10:39:13;;;;;;;2.77;2.07;;;39.20;29.10;;;;;;5033530;28;20402;-72
2023/09/19 10:41:39;;;;;;;2.33;1.87;;;38.20;28.80;;;;;;5033596;28;20493;-72
2023/09/19 10:44:05;;;;;;;3.90;2.20;;;37.30;29.20;;;;;;5033101;28;20432;-72
2023/09/19 10:46:33;;;;;;;3.23;1.97;;;36.70;30.00;;;;;;5032908;28;20452;-72
2023/09/19 10:49:02;;;;;;;4.23;2.00;;;36.60;30.00;;;;;;5033131;28;20786;-72
2023/09/19 10:51:38;;;;;;;3.63;1.73;;;36.50;30.60;;;;;;5033081;28;20401;-73
2023/09/19 10:54:13;;;;;;;4.73;1.70;;;36.00;30.30;;;;;;5031627;28;20456;-71
2023/09/19 10:56:44;;;;;;;2.63;2.00;;;36.00;31.60;;;;;;5033645;28;20861;-72
2023/09/19 10:59:18;;;;;;;2.80;1.80;;;36.40;31.20;;;;;;5033327;28;20414;-72
2023/09/19 11:01:47;;;;;;;2.17;1.53;;;37.10;32.00;;;;;;5033286;28;20628;-72
2023/09/19 11:04:26;;;;;;;4.27;1.80;;;37.40;30.10;;;;;;5032779;28;20423;-72
2023/09/19 11:07:11;;;;;;;4.27;2.27;;;37.90;30.90;;;;;;5032972;28;20454;-72
2023/09/19 11:10:01;;;;;;;2.30;1.90;;;37.20;29.20;;;;;;5031639;28;20426;-72
2023/09/19 11:12:30;;;;;;;3.13;2.23;;;37.50;30.20;;;;;;5032689;28;20413;-72
2023/09/19 11:14:56;;;;;;;3.30;1.87;;;38.10;30.00;;;;;;5032357;28;20945;-73
2023/09/19 11:17:32;;;;;;;1.90;1.70;;;38.20;29.20;;;;;;5032920;28;20421;-72
2023/09/19 11:20:23;;;;;;;5.20;2.27;;;38.50;29.20;;;;;;5031673;28;20493;-72
2023/09/19 11:22:53;;;;;;;5.13;1.90;;;39.10;29.20;;;;;;5032319;28;20917;-73
2023/09/19 11:25:31;;;;;;;3.90;2.03;;;39.40;28.30;;;;;;5030718;28;20458;-72
2023/09/19 11:28:18;;;;;;;3.80;2.20;;;39.80;28.00;;;;;;5032402;28;20394;-72
2023/09/19 11:30:48;;;;;;;2.90;2.07;;;39.80;28.10;;;;;;5031862;28;20414;-73
2023/09/19 11:33:33;;;;;;;3.43;2.00;;;39.90;27.70;;;;;;5032289;28;20414;-72
2023/09/19 11:36:15;;;;;;;5.67;2.10;;;39.90;27.70;;;;;;5032149;28;20411;-73
2023/09/19 11:38:44;;;;;;;3.73;2.10;;;40.00;27.80;;;;;;5032289;28;20406;-73
2023/09/19 11:44:17;;;;;;;5.50;2.37;;;41.40;26.50;;;;;;5031984;28;20829;-73
2023/09/19 11:46:53;;;;;;;4.67;2.20;;;42.40;26.40;;;;;;5031903;28;20450;-74
2023/09/19 11:49:26;;;;;;;2.97;2.67;;;42.60;24.70;;;;;;5031979;28;20373;-72
2023/09/19 11:51:51;;;;;;;2.67;2.13;;;41.70;24.20;;;;;;5032092;28;20402;-73
2023/09/19 11:54:21;;;;;;;3.47;1.83;;;42.10;24.50;;;;;;5031892;28;20512;-72
2023/09/19 11:56:54;;;;;;;3.90;2.37;;;41.90;24.10;;;;;;5032014;28;20202;-73
2023/09/19 11:59:30;;;;;;;3.87;2.60;;;42.40;24.90;;;;;;5032072;28;20955;-73
2023/09/19 12:02:08;;;;;;;4.37;2.00;;;43.20;24.60;;;;;;5032047;28;20404;-72
2023/09/19 12:04:43;;;;;;;3.03;2.60;;;43.70;23.70;;;;;;5031631;28;20420;-73
2023/09/19 12:07:15;;;;;;;3.90;2.10;;;43.80;23.10;;;;;;5031870;28;20424;-72
2023/09/19 12:09:47;;;;;;;3.50;1.90;;;43.90;23.00;;;;;;5031789;28;20843;-73
2023/09/19 12:12:29;;;;;;;3.00;2.03;;;43.60;23.00;;;;;;5031672;28;20758;-73
2023/09/19 12:14:59;;;;;;;2.20;2.00;;;43.00;22.80;;;;;;5031454;28;20431;-73
2023/09/19 12:17:38;;;;;;;3.37;2.13;;;42.50;23.10;;;;;;5031762;28;20409;-72
2023/09/19 12:20:14;;;;;;;2.40;1.83;;;42.90;23.70;;;;;;5031869;28;20451;-73
2023/09/19 12:22:43;;;;;;;3.20;2.13;;;43.60;23.10;;;;;;5031644;28;20536;-73
2023/09/19 12:25:10;;;;;;;3.37;2.63;;;43.90;23.40;;;;;;5031352;28;20579;-73
2023/09/19 12:27:52;;;;;;;2.23;2.03;;;43.80;22.90;;;;;;5031714;28;20369;-73
2023/09/19 12:30:20;;;;;;;3.03;2.43;;;43.30;22.40;;;;;;5032310;28;20372;-73
2023/09/19 12:32:48;;;;;;;2.20;1.67;;;42.20;22.40;;;;;;5035642;28;20413;-73
2023/09/19 12:35:34;;;;;;;4.00;2.40;;;41.70;22.90;;;;;;5035324;28;20422;-72
2023/09/19 12:38:00;;;;;;;1.97;1.77;;;40.80;23.50;;;;;;5035636;28;20493;-73
2023/09/19 12:40:28;;;;;;;3.03;1.90;;;40.10;23.80;;;;;;5035346;28;20406;-72
2023/09/19 12:43:04;;;;;;;2.27;1.77;;;39.10;24.60;;;;;;5035605;28;20409;-72
2023/09/19 12:45:31;;;;;;;3.20;1.70;;;39.20;25.50;;;;;;5035108;28;20592;-74
2023/09/19 12:48:22;;;;;;;2.67;1.73;;;39.70;25.10;;;;;;5035209;28;20449;-72
2023/09/19 12:51:00;;;;;;;3.07;1.97;;;40.10;24.60;;;;;;5035365;28;20425;-73
2023/09/19 12:53:29;;;;;;;2.23;1.80;;;40.00;24.20;;;;;;5035126;28;20858;-72
2023/09/19 12:56:00;;;;;;;2.80;1.90;;;39.30;24.10;;;;;;5035075;28;20401;-72
2023/09/19 12:58:26;;;;;;;2.13;1.87;;;38.40;24.80;;;;;;5035324;28;20455;-72
2023/09/19 13:00:53;;;;;;;9.10;1.90;;;38.20;25.50;;;;;;5035136;28;20394;-72
2023/09/19 13:03:22;;;;;;;2.00;1.60;;;38.90;25.60;;;;;;5035121;28;20398;-72
2023/09/19 13:05:56;;;;;;;1.97;1.53;;;39.50;25.20;;;;;;5034742;28;20488;-73